LFBL/LIG METAR and TAF weather

Enter ICAO airport designator
Station Type Date Time Source
LFBL METAR 2021/09/16 22:30 UTC NOAA

LFBL 162230Z AUTO 28007KT 9999 SCT018/// SCT024/// BKN030/// ///TCU 17/16 Q1019 TEMPO 4000 SHRA BKN025CB


Station Type Date Time Source
LFBL Decoded METAR 2021/09/16 22:30 UTC NOAA

Limoges, France (LFBL) 45-52N 001-11E 402M
Sep 16, 2021 - 06:30 PM EDT / 2021.09.16 2230 UTC
Wind: from the W (280 degrees) at 8 MPH (7 KT):0
Visibility: greater than 7 mile(s):0
Sky conditions: mostly cloudy
Weather: Cumulonimbus clouds, towering cumulus clouds observed
Temperature: 62 F (17 C)
Dew Point: 60 F (16 C)
Relative Humidity: 93%
Pressure (altimeter): 30.09 in. Hg (1019 hPa)
ob: LFBL 162230Z AUTO 28007KT 9999 SCT018/// SCT024/// BKN030/// ///TCU 17/16 Q1019 TEMPO 4000 SHRA BKN025CB
cycle: 22

Station Type Date Time Source
LFBL TAF 2021/09/16 21:33 UTC NOAA

TAF
AMD LFBL 162126Z 1621/1718 34006KT 9999 SCT040TCU BKN060
TEMPO 1621/1624 4000 SHRA BKN025CB
BECMG 1621/1622 VRB03KT
BECMG 1700/1702 BKN020
TEMPO 1702/1705 3000 BR BKN005
BECMG 1705/1706 BKN012
TEMPO 1707/1710 SCT020TCU
BECMG 1709/1711 23006KT SCT016 BKN030

Example: see airport list